CCA1203 ZBAA-ZLXN
Flight info
| Callsign | CCA1203 |
|---|---|
| Flight time | 2h 30m |
| Altitude | 38100 |
| Route | BOTPU6J BOTPU W47 IDSOT W48 MAKIP DCT MULOB W220 NIRUV B215 VENIV W198 PANRA |
| Aircraft | B77W/H-SDE1E2E3FGHIJ2J3J4J5M1RWXY/LB1D1 |
Departure
| Time | 2026-05-04 05:19 |
|---|---|
| Airport | Beijing Capital International Airport (ZBAA) |
Arrival
| Time | 2026-05-04 07:50 |
|---|---|
| Airport | Xining Caojiabao International Airport (ZLXN) |
| Time | Latitude | Longitude | Altitude | Speed | Heading |
|---|---|---|---|---|---|
| 2026-05-04 04:18 | 40.05387 | 116.60571 | 129 ft | 0 kts | 143° |
| 2026-05-04 04:58 | 40.05388 | 116.60570 | 129 ft | 1 kts | 143° |
| 2026-05-04 04:58 | 40.05400 | 116.60558 | 129 ft | 2 kts | 143° |
| 2026-05-04 04:58 | 40.05412 | 116.60546 | 129 ft | 2 kts | 143° |
| 2026-05-04 04:58 | 40.05424 | 116.60535 | 129 ft | 2 kts | 143° |
| 2026-05-04 04:59 | 40.05432 | 116.60526 | 129 ft | 0 kts | 143° |
| 2026-05-04 04:59 | 40.05442 | 116.60514 | 129 ft | 2 kts | 117° |
| 2026-05-04 04:59 | 40.05446 | 116.60496 | 129 ft | 2 kts | 85° |
| 2026-05-04 04:59 | 40.05442 | 116.60478 | 129 ft | 1 kts | 57° |
| 2026-05-04 05:00 | 40.05439 | 116.60471 | 129 ft | 1 kts | 52° |
| 2026-05-04 05:00 | 40.05438 | 116.60470 | 129 ft | 0 kts | 52° |
| 2026-05-04 05:04 | 40.05521 | 116.60574 | 129 ft | 15 kts | 26° |
| 2026-05-04 05:04 | 40.05644 | 116.60608 | 129 ft | 21 kts | 0° |
| 2026-05-04 05:04 | 40.05805 | 116.60592 | 129 ft | 23 kts | 354° |
| 2026-05-04 05:06 | 40.06410 | 116.60228 | 129 ft | 13 kts | 353° |
| 2026-05-04 05:06 | 40.06514 | 116.60210 | 129 ft | 16 kts | 353° |
| 2026-05-04 05:06 | 40.06634 | 116.60190 | 129 ft | 18 kts | 353° |
| 2026-05-04 05:07 | 40.06768 | 116.60169 | 129 ft | 20 kts | 353° |
| 2026-05-04 05:07 | 40.06916 | 116.60147 | 129 ft | 22 kts | 353° |
| 2026-05-04 05:07 | 40.07074 | 116.60121 | 129 ft | 23 kts | 353° |
| 2026-05-04 05:09 | 40.08689 | 116.59869 | 129 ft | 33 kts | 354° |
| 2026-05-04 05:09 | 40.08873 | 116.59843 | 129 ft | 0 kts | 353° |
| 2026-05-04 05:17 | 40.08881 | 116.59841 | 129 ft | 3 kts | 353° |
| 2026-05-04 05:17 | 40.08926 | 116.59835 | 129 ft | 9 kts | 353° |
| 2026-05-04 05:17 | 40.08986 | 116.59791 | 129 ft | 11 kts | 287° |
| 2026-05-04 05:17 | 40.08982 | 116.59672 | 129 ft | 11 kts | 263° |
| 2026-05-04 05:18 | 40.08972 | 116.59575 | 129 ft | 9 kts | 260° |
| 2026-05-04 05:18 | 40.08934 | 116.59521 | 129 ft | 9 kts | 221° |
| 2026-05-04 05:18 | 40.08873 | 116.59493 | 129 ft | 10 kts | 179° |
| 2026-05-04 05:18 | 40.08787 | 116.59503 | 129 ft | 22 kts | 174° |
| 2026-05-04 05:19 | 40.08342 | 116.59575 | 129 ft | 109 kts | 174° |
| 2026-05-04 05:19 | 40.07315 | 116.59742 | 226 ft | 179 kts | 174° |
| 2026-05-04 05:19 | 40.06036 | 116.59947 | 1153 ft | 187 kts | 175° |
| 2026-05-04 05:19 | 40.04822 | 116.60122 | 2292 ft | 175 kts | 175° |
| 2026-05-04 05:20 | 40.03612 | 116.60316 | 2831 ft | 175 kts | 175° |
| 2026-05-04 05:20 | 40.02396 | 116.60509 | 2966 ft | 175 kts | 175° |
| 2026-05-04 05:20 | 40.01193 | 116.60698 | 2982 ft | 173 kts | 175° |
| 2026-05-04 05:20 | 39.99995 | 116.60885 | 2983 ft | 172 kts | 176° |
| 2026-05-04 05:21 | 39.98802 | 116.61071 | 2987 ft | 172 kts | 176° |
| 2026-05-04 05:21 | 39.97608 | 116.61256 | 2987 ft | 172 kts | 175° |
| 2026-05-04 05:21 | 39.96420 | 116.61441 | 2984 ft | 172 kts | 175° |
| 2026-05-04 05:21 | 39.95226 | 116.61628 | 2983 ft | 173 kts | 175° |
| 2026-05-04 05:22 | 39.93953 | 116.61826 | 3455 ft | 191 kts | 175° |
| 2026-05-04 05:22 | 39.92582 | 116.62039 | 4075 ft | 208 kts | 175° |
| 2026-05-04 05:22 | 39.91089 | 116.62271 | 4704 ft | 226 kts | 175° |
| 2026-05-04 05:22 | 39.89472 | 116.62522 | 5365 ft | 244 kts | 175° |
| 2026-05-04 05:23 | 39.87733 | 116.62793 | 6042 ft | 262 kts | 175° |
| 2026-05-04 05:23 | 39.85864 | 116.63083 | 6747 ft | 279 kts | 175° |
| 2026-05-04 05:23 | 39.83910 | 116.63388 | 7612 ft | 289 kts | 176° |
| 2026-05-04 05:23 | 39.81884 | 116.63699 | 8509 ft | 298 kts | 176° |
| 2026-05-04 05:24 | 39.79803 | 116.64016 | 9385 ft | 307 kts | 176° |
| 2026-05-04 05:24 | 39.77652 | 116.64145 | 10285 ft | 312 kts | 185° |
| 2026-05-04 05:24 | 39.75453 | 116.63842 | 10944 ft | 326 kts | 194° |
| 2026-05-04 05:24 | 39.73220 | 116.63042 | 11561 ft | 340 kts | 204° |
| 2026-05-04 05:25 | 39.71035 | 116.61701 | 12195 ft | 354 kts | 214° |
| 2026-05-04 05:25 | 39.68987 | 116.59799 | 12823 ft | 367 kts | 225° |
| 2026-05-04 05:25 | 39.67195 | 116.57368 | 13458 ft | 380 kts | 236° |
| 2026-05-04 05:25 | 39.65753 | 116.54451 | 14131 ft | 390 kts | 247° |
| 2026-05-04 05:26 | 39.64777 | 116.51177 | 14998 ft | 394 kts | 258° |
| 2026-05-04 05:26 | 39.64318 | 116.47688 | 15953 ft | 396 kts | 269° |
| 2026-05-04 05:26 | 39.64173 | 116.44116 | 16853 ft | 402 kts | 270° |
| 2026-05-04 05:26 | 39.64022 | 116.40467 | 17734 ft | 410 kts | 269° |
| 2026-05-04 05:27 | 39.63839 | 116.36740 | 18650 ft | 416 kts | 269° |
| 2026-05-04 05:28 | 39.62147 | 116.09471 | 23841 ft | 447 kts | 267° |
| 2026-05-04 05:29 | 39.61877 | 116.05442 | 24630 ft | 452 kts | 267° |
| 2026-05-04 05:29 | 39.61600 | 116.01348 | 25431 ft | 456 kts | 267° |
| 2026-05-04 05:29 | 39.61321 | 115.97244 | 26172 ft | 461 kts | 268° |
| 2026-05-04 05:29 | 39.61036 | 115.93078 | 26931 ft | 464 kts | 268° |
| 2026-05-04 05:31 | 39.68112 | 115.66435 | 32779 ft | 442 kts | 316° |
| 2026-05-04 05:31 | 39.70404 | 115.63814 | 33553 ft | 437 kts | 324° |
| 2026-05-04 05:32 | 39.72937 | 115.61646 | 34185 ft | 434 kts | 331° |
| 2026-05-04 05:32 | 39.75674 | 115.59941 | 34700 ft | 434 kts | 337° |
| 2026-05-04 05:32 | 39.78361 | 115.58501 | 35156 ft | 433 kts | 337° |
| 2026-05-04 05:33 | 39.83935 | 115.55503 | 35997 ft | 432 kts | 336° |
| 2026-05-04 05:33 | 39.86712 | 115.53989 | 36424 ft | 431 kts | 335° |
| 2026-05-04 05:33 | 39.89371 | 115.52205 | 36871 ft | 430 kts | 328° |
| 2026-05-04 05:33 | 39.91810 | 115.49959 | 37296 ft | 430 kts | 321° |
| 2026-05-04 05:34 | 39.93983 | 115.47292 | 37717 ft | 430 kts | 313° |
| 2026-05-04 05:34 | 39.95849 | 115.44257 | 38039 ft | 431 kts | 306° |
| 2026-05-04 05:34 | 39.97392 | 115.40902 | 38090 ft | 434 kts | 298° |
| 2026-05-04 05:35 | 39.99329 | 115.33489 | 38102 ft | 435 kts | 283° |
| 2026-05-04 05:35 | 39.99842 | 115.25567 | 38126 ft | 441 kts | 276° |
| 2026-05-04 05:36 | 40.00164 | 115.17597 | 38120 ft | 441 kts | 277° |
| 2026-05-04 05:36 | 40.00521 | 115.09641 | 38123 ft | 440 kts | 277° |
| 2026-05-04 05:37 | 40.00894 | 115.01678 | 38131 ft | 441 kts | 277° |
| 2026-05-04 05:37 | 40.01271 | 114.93720 | 38117 ft | 440 kts | 277° |
| 2026-05-04 05:38 | 40.01836 | 114.81789 | 38106 ft | 440 kts | 277° |
| 2026-05-04 05:38 | 40.02211 | 114.73795 | 38089 ft | 441 kts | 277° |
| 2026-05-04 05:39 | 40.02763 | 114.61833 | 38105 ft | 442 kts | 277° |
| 2026-05-04 05:40 | 40.03304 | 114.49850 | 38124 ft | 441 kts | 277° |
| 2026-05-04 05:40 | 40.03656 | 114.41881 | 38111 ft | 440 kts | 277° |
| 2026-05-04 05:41 | 40.04004 | 114.33912 | 38103 ft | 440 kts | 276° |
| 2026-05-04 05:41 | 40.04347 | 114.25934 | 38096 ft | 441 kts | 276° |
| 2026-05-04 05:42 | 40.04684 | 114.17970 | 38086 ft | 440 kts | 276° |
| 2026-05-04 05:42 | 40.05105 | 114.09991 | 38081 ft | 441 kts | 279° |
| 2026-05-04 05:43 | 40.05716 | 114.02060 | 38061 ft | 440 kts | 279° |
| 2026-05-04 05:45 | 40.08036 | 113.70318 | 38061 ft | 438 kts | 279° |
| 2026-05-04 05:47 | 40.10243 | 113.38548 | 38098 ft | 440 kts | 279° |
| 2026-05-04 05:47 | 40.10779 | 113.30627 | 38094 ft | 439 kts | 278° |
| 2026-05-04 05:48 | 40.11313 | 113.22658 | 38092 ft | 439 kts | 278° |
| 2026-05-04 05:48 | 40.11838 | 113.14730 | 38099 ft | 439 kts | 278° |
| 2026-05-04 05:49 | 40.12359 | 113.06795 | 38119 ft | 438 kts | 278° |
| 2026-05-04 05:49 | 40.12879 | 112.98780 | 38117 ft | 438 kts | 278° |
| 2026-05-04 05:51 | 40.14885 | 112.67015 | 38153 ft | 440 kts | 278° |
| 2026-05-04 05:52 | 40.15373 | 112.59075 | 38150 ft | 439 kts | 278° |
| 2026-05-04 05:52 | 40.15856 | 112.51119 | 38146 ft | 440 kts | 277° |
| 2026-05-04 05:54 | 40.09094 | 112.20029 | 38161 ft | 452 kts | 254° |
| 2026-05-04 05:55 | 40.06948 | 112.12345 | 38145 ft | 451 kts | 254° |
| 2026-05-04 05:55 | 40.04790 | 112.04648 | 38157 ft | 452 kts | 254° |
| 2026-05-04 05:56 | 40.02625 | 111.96956 | 38157 ft | 453 kts | 254° |
| 2026-05-04 05:56 | 40.00427 | 111.89264 | 38148 ft | 454 kts | 251° |
| 2026-05-04 05:57 | 39.97038 | 111.82246 | 38151 ft | 464 kts | 233° |
| 2026-05-04 05:57 | 39.92211 | 111.76543 | 38150 ft | 469 kts | 224° |
| 2026-05-04 05:58 | 39.87199 | 111.71114 | 38149 ft | 470 kts | 225° |
| 2026-05-04 05:58 | 39.82177 | 111.65685 | 38151 ft | 470 kts | 225° |
| 2026-05-04 05:59 | 39.77127 | 111.60236 | 38153 ft | 470 kts | 224° |
| 2026-05-04 05:59 | 39.72099 | 111.54820 | 38154 ft | 471 kts | 224° |
| 2026-05-04 06:00 | 39.67057 | 111.49400 | 38158 ft | 470 kts | 224° |
| 2026-05-04 06:00 | 39.62019 | 111.43994 | 38149 ft | 472 kts | 224° |
| 2026-05-04 06:01 | 39.56976 | 111.38593 | 38149 ft | 471 kts | 224° |
| 2026-05-04 06:03 | 39.36764 | 111.17053 | 38129 ft | 471 kts | 224° |
| 2026-05-04 06:05 | 39.19830 | 110.97525 | 38111 ft | 459 kts | 242° |
| 2026-05-04 06:05 | 39.17176 | 110.90188 | 38117 ft | 448 kts | 258° |
| 2026-05-04 06:06 | 39.16285 | 110.82350 | 38118 ft | 442 kts | 274° |
| 2026-05-04 06:06 | 39.16649 | 110.74475 | 38126 ft | 441 kts | 277° |
| 2026-05-04 06:07 | 39.17065 | 110.66552 | 38123 ft | 442 kts | 277° |
| 2026-05-04 06:07 | 39.17453 | 110.58661 | 38125 ft | 441 kts | 277° |
| 2026-05-04 06:08 | 39.17826 | 110.50766 | 38138 ft | 442 kts | 277° |
| 2026-05-04 06:08 | 39.18187 | 110.42880 | 38132 ft | 442 kts | 277° |
| 2026-05-04 06:09 | 39.18541 | 110.34988 | 38138 ft | 441 kts | 276° |
| 2026-05-04 06:11 | 39.19980 | 110.03243 | 38132 ft | 443 kts | 276° |
| 2026-05-04 06:13 | 39.21467 | 109.71420 | 38137 ft | 444 kts | 276° |
| 2026-05-04 06:14 | 39.22670 | 109.43604 | 38137 ft | 445 kts | 276° |
| 2026-05-04 06:15 | 39.22974 | 109.35604 | 38145 ft | 445 kts | 276° |
| 2026-05-04 06:15 | 39.23274 | 109.27613 | 38153 ft | 448 kts | 275° |
| 2026-05-04 06:16 | 39.23569 | 109.19595 | 38142 ft | 446 kts | 275° |
| 2026-05-04 06:16 | 39.23861 | 109.11570 | 38141 ft | 448 kts | 275° |
| 2026-05-04 06:17 | 39.24145 | 109.03559 | 38138 ft | 446 kts | 275° |
| 2026-05-04 06:17 | 39.24424 | 108.95571 | 38139 ft | 448 kts | 275° |
| 2026-05-04 06:18 | 39.24698 | 108.87573 | 38137 ft | 446 kts | 275° |
| 2026-05-04 06:20 | 39.25752 | 108.55428 | 38125 ft | 449 kts | 275° |
| 2026-05-04 06:21 | 39.26366 | 108.35331 | 38121 ft | 449 kts | 275° |
| 2026-05-04 06:22 | 39.26603 | 108.27266 | 38115 ft | 449 kts | 275° |
| 2026-05-04 06:25 | 39.28072 | 107.70890 | 38095 ft | 452 kts | 271° |
| 2026-05-04 06:26 | 39.26872 | 107.62900 | 38106 ft | 459 kts | 252° |
| 2026-05-04 06:26 | 39.23770 | 107.55665 | 38104 ft | 465 kts | 239° |
| 2026-05-04 06:27 | 39.14428 | 107.38486 | 38070 ft | 468 kts | 239° |
| 2026-05-04 06:28 | 39.10677 | 107.31605 | 38060 ft | 468 kts | 238° |
| 2026-05-04 06:28 | 39.06898 | 107.24716 | 38055 ft | 469 kts | 238° |
| 2026-05-04 06:29 | 39.03136 | 107.17877 | 38050 ft | 467 kts | 238° |
| 2026-05-04 06:29 | 38.99377 | 107.11058 | 38055 ft | 466 kts | 238° |
| 2026-05-04 06:30 | 38.95612 | 107.04240 | 38065 ft | 467 kts | 238° |
| 2026-05-04 06:30 | 38.91848 | 106.97439 | 38064 ft | 468 kts | 238° |
| 2026-05-04 06:31 | 38.88075 | 106.90637 | 38049 ft | 466 kts | 238° |
| 2026-05-04 06:31 | 38.84306 | 106.83856 | 38053 ft | 466 kts | 238° |
| 2026-05-04 06:33 | 38.69161 | 106.56750 | 38062 ft | 465 kts | 238° |
| 2026-05-04 06:34 | 38.65386 | 106.50029 | 38067 ft | 465 kts | 238° |
| 2026-05-04 06:34 | 38.61610 | 106.43320 | 38065 ft | 465 kts | 238° |
| 2026-05-04 06:36 | 38.46409 | 106.16450 | 38068 ft | 465 kts | 238° |
| 2026-05-04 06:37 | 38.42613 | 106.09795 | 38062 ft | 464 kts | 237° |
| 2026-05-04 06:37 | 38.38709 | 106.03250 | 38066 ft | 465 kts | 237° |
| 2026-05-04 06:38 | 38.34777 | 105.96685 | 38064 ft | 465 kts | 237° |
| 2026-05-04 06:40 | 38.19038 | 105.70475 | 38099 ft | 466 kts | 237° |
| 2026-05-04 06:40 | 38.15090 | 105.63928 | 38099 ft | 466 kts | 237° |
| 2026-05-04 06:41 | 38.11151 | 105.57410 | 38092 ft | 466 kts | 237° |
| 2026-05-04 06:41 | 38.07208 | 105.50898 | 38087 ft | 465 kts | 237° |
| 2026-05-04 06:42 | 38.03267 | 105.44403 | 38085 ft | 465 kts | 237° |
| 2026-05-04 06:44 | 37.87339 | 105.18273 | 38076 ft | 465 kts | 236° |
| 2026-05-04 06:44 | 37.83364 | 105.11782 | 38087 ft | 466 kts | 236° |
| 2026-05-04 06:45 | 37.79404 | 105.05330 | 38090 ft | 466 kts | 236° |
| 2026-05-04 06:45 | 37.75439 | 104.98883 | 38100 ft | 466 kts | 236° |
| 2026-05-04 06:46 | 37.71470 | 104.92442 | 38100 ft | 465 kts | 236° |
| 2026-05-04 06:46 | 37.67497 | 104.86007 | 38108 ft | 465 kts | 237° |
| 2026-05-04 06:48 | 37.51617 | 104.60409 | 38125 ft | 465 kts | 237° |
| 2026-05-04 06:50 | 37.35901 | 104.34733 | 38136 ft | 464 kts | 237° |
| 2026-05-04 06:51 | 37.32008 | 104.28300 | 38150 ft | 463 kts | 237° |
| 2026-05-04 06:51 | 37.28125 | 104.21897 | 38155 ft | 462 kts | 237° |
| 2026-05-04 06:52 | 37.24222 | 104.15475 | 38143 ft | 464 kts | 237° |
| 2026-05-04 06:52 | 37.20379 | 104.09014 | 38148 ft | 460 kts | 243° |
| 2026-05-04 06:53 | 37.17684 | 104.01864 | 38182 ft | 454 kts | 252° |
| 2026-05-04 06:53 | 37.15331 | 103.94573 | 38193 ft | 451 kts | 252° |
| 2026-05-04 06:54 | 37.12977 | 103.87291 | 38213 ft | 453 kts | 252° |
| 2026-05-04 06:54 | 37.10620 | 103.80026 | 38265 ft | 452 kts | 252° |
| 2026-05-04 06:55 | 37.08256 | 103.72757 | 38276 ft | 452 kts | 252° |
| 2026-05-04 06:55 | 37.05883 | 103.65477 | 38296 ft | 453 kts | 252° |
| 2026-05-04 06:57 | 36.96371 | 103.36494 | 38340 ft | 451 kts | 253° |
| 2026-05-04 06:58 | 36.93981 | 103.29257 | 38351 ft | 453 kts | 252° |
| 2026-05-04 06:58 | 36.91620 | 103.22000 | 38379 ft | 451 kts | 253° |
| 2026-05-04 06:59 | 36.89276 | 103.14747 | 38359 ft | 454 kts | 253° |
| 2026-05-04 06:59 | 36.86888 | 103.07379 | 38363 ft | 465 kts | 253° |
| 2026-05-04 07:01 | 36.69374 | 102.88170 | 38368 ft | 532 kts | 203° |
| 2026-05-04 07:01 | 36.65957 | 102.86480 | 38378 ft | 525 kts | 212° |
| 2026-05-04 07:02 | 36.59987 | 102.81483 | 38370 ft | 512 kts | 229° |
| 2026-05-04 07:02 | 36.55462 | 102.74835 | 38371 ft | 502 kts | 240° |
| 2026-05-04 07:03 | 36.52007 | 102.67442 | 38363 ft | 490 kts | 254° |
| 2026-05-04 07:03 | 36.50514 | 102.59346 | 38369 ft | 478 kts | 271° |
| 2026-05-04 07:04 | 36.50447 | 102.51277 | 38365 ft | 456 kts | 268° |
| 2026-05-04 07:04 | 36.48911 | 102.43849 | 38272 ft | 434 kts | 255° |
| 2026-05-04 07:05 | 36.48048 | 102.40361 | 38224 ft | 413 kts | 263° |
| 2026-05-04 07:05 | 36.47572 | 102.36933 | 38171 ft | 393 kts | 270° |
| 2026-05-04 07:05 | 36.47461 | 102.33636 | 38030 ft | 373 kts | 276° |
| 2026-05-04 07:05 | 36.47534 | 102.30494 | 37770 ft | 360 kts | 275° |
| 2026-05-04 07:06 | 36.47897 | 102.24485 | 36932 ft | 342 kts | 283° |
| 2026-05-04 07:06 | 36.48365 | 102.21608 | 36290 ft | 340 kts | 287° |
| 2026-05-04 07:06 | 36.48996 | 102.18778 | 35600 ft | 341 kts | 289° |
| 2026-05-04 07:07 | 36.49713 | 102.15985 | 35035 ft | 342 kts | 291° |
| 2026-05-04 07:08 | 36.56056 | 101.97194 | 31097 ft | 333 kts | 299° |
| 2026-05-04 07:09 | 36.57133 | 101.94661 | 30551 ft | 331 kts | 300° |
| 2026-05-04 07:09 | 36.58237 | 101.92204 | 30347 ft | 318 kts | 302° |
| 2026-05-04 07:09 | 36.59356 | 101.89842 | 30340 ft | 322 kts | 303° |
| 2026-05-04 07:10 | 36.61792 | 101.85094 | 30334 ft | 321 kts | 306° |
| 2026-05-04 07:10 | 36.63073 | 101.82902 | 30330 ft | 309 kts | 316° |
| 2026-05-04 07:12 | 36.77323 | 101.85285 | 27451 ft | 321 kts | 30° |
| 2026-05-04 07:12 | 36.78962 | 101.87194 | 26949 ft | 329 kts | 52° |
| 2026-05-04 07:12 | 36.79906 | 101.89803 | 26415 ft | 338 kts | 75° |
| 2026-05-04 07:12 | 36.79982 | 101.92732 | 25925 ft | 344 kts | 98° |
| 2026-05-04 07:13 | 36.79174 | 101.95530 | 25468 ft | 346 kts | 117° |
| 2026-05-04 07:13 | 36.77949 | 101.98110 | 25128 ft | 342 kts | 120° |
| 2026-05-04 07:13 | 36.76680 | 102.00641 | 24736 ft | 339 kts | 120° |
| 2026-05-04 07:14 | 36.71721 | 102.10506 | 23083 ft | 330 kts | 120° |
| 2026-05-04 07:14 | 36.70512 | 102.12921 | 22713 ft | 327 kts | 120° |
| 2026-05-04 07:15 | 36.69315 | 102.15320 | 22280 ft | 326 kts | 120° |
| 2026-05-04 07:15 | 36.68125 | 102.17717 | 21895 ft | 324 kts | 120° |
| 2026-05-04 07:15 | 36.66939 | 102.20113 | 21537 ft | 320 kts | 120° |
| 2026-05-04 07:15 | 36.65776 | 102.22482 | 21271 ft | 314 kts | 120° |
| 2026-05-04 07:16 | 36.64637 | 102.24805 | 20878 ft | 313 kts | 120° |
| 2026-05-04 07:16 | 36.63510 | 102.27115 | 20484 ft | 311 kts | 120° |
| 2026-05-04 07:16 | 36.62395 | 102.29413 | 20132 ft | 309 kts | 120° |
| 2026-05-04 07:16 | 36.61295 | 102.31690 | 19760 ft | 307 kts | 120° |
| 2026-05-04 07:17 | 36.60194 | 102.33974 | 19407 ft | 304 kts | 120° |
| 2026-05-04 07:17 | 36.59109 | 102.36231 | 19048 ft | 303 kts | 120° |
| 2026-05-04 07:17 | 36.58035 | 102.38473 | 18675 ft | 301 kts | 120° |
| 2026-05-04 07:17 | 36.56970 | 102.40708 | 18323 ft | 299 kts | 120° |
| 2026-05-04 07:18 | 36.55909 | 102.42939 | 17962 ft | 298 kts | 120° |
| 2026-05-04 07:18 | 36.54857 | 102.45161 | 17591 ft | 297 kts | 120° |
| 2026-05-04 07:18 | 36.53807 | 102.47380 | 17236 ft | 295 kts | 120° |
| 2026-05-04 07:18 | 36.52762 | 102.49588 | 16916 ft | 292 kts | 120° |
| 2026-05-04 07:19 | 36.51733 | 102.51766 | 16561 ft | 291 kts | 120° |
| 2026-05-04 07:19 | 36.50713 | 102.53928 | 16226 ft | 289 kts | 120° |
| 2026-05-04 07:19 | 36.49565 | 102.55978 | 15849 ft | 288 kts | 137° |
| 2026-05-04 07:19 | 36.47879 | 102.57273 | 15437 ft | 284 kts | 165° |
| 2026-05-04 07:20 | 36.45933 | 102.57484 | 15077 ft | 277 kts | 192° |
| 2026-05-04 07:20 | 36.44174 | 102.56598 | 14690 ft | 271 kts | 220° |
| 2026-05-04 07:20 | 36.42991 | 102.54853 | 14319 ft | 264 kts | 248° |
| 2026-05-04 07:20 | 36.42632 | 102.52659 | 13952 ft | 260 kts | 276° |
| 2026-05-04 07:22 | 36.50238 | 102.41465 | 13802 ft | 261 kts | 337° |
| 2026-05-04 07:22 | 36.51948 | 102.40656 | 13833 ft | 262 kts | 337° |
| 2026-05-04 07:23 | 36.53666 | 102.39846 | 13842 ft | 261 kts | 337° |
| 2026-05-04 07:23 | 36.55375 | 102.39042 | 13852 ft | 261 kts | 337° |
| 2026-05-04 07:23 | 36.57090 | 102.38232 | 13856 ft | 261 kts | 337° |
| 2026-05-04 07:23 | 36.58699 | 102.37052 | 13853 ft | 283 kts | 314° |
| 2026-05-04 07:24 | 36.59803 | 102.34912 | 13836 ft | 299 kts | 288° |
| 2026-05-04 07:24 | 36.60316 | 102.32463 | 13837 ft | 283 kts | 282° |
| 2026-05-04 07:24 | 36.60732 | 102.30112 | 13835 ft | 268 kts | 282° |
| 2026-05-04 07:24 | 36.61121 | 102.27892 | 13837 ft | 257 kts | 282° |
| 2026-05-04 07:25 | 36.61501 | 102.25719 | 13845 ft | 255 kts | 282° |
| 2026-05-04 07:26 | 36.64128 | 102.10623 | 13875 ft | 245 kts | 282° |
| 2026-05-04 07:27 | 36.64490 | 102.08537 | 13898 ft | 246 kts | 282° |
| 2026-05-04 07:27 | 36.64851 | 102.06449 | 13908 ft | 245 kts | 282° |
| 2026-05-04 07:27 | 36.65211 | 102.04367 | 13911 ft | 244 kts | 282° |
| 2026-05-04 07:27 | 36.65522 | 102.02565 | 13916 ft | 245 kts | 282° |
| 2026-05-04 07:28 | 36.65883 | 102.00474 | 13911 ft | 244 kts | 282° |
| 2026-05-04 07:28 | 36.66242 | 101.98390 | 13909 ft | 246 kts | 282° |
| 2026-05-04 07:28 | 36.66601 | 101.96305 | 13913 ft | 246 kts | 282° |
| 2026-05-04 07:28 | 36.66960 | 101.94218 | 13916 ft | 245 kts | 282° |
| 2026-05-04 07:29 | 36.67317 | 101.92139 | 13910 ft | 246 kts | 282° |
| 2026-05-04 07:29 | 36.67671 | 101.90076 | 13775 ft | 241 kts | 282° |
| 2026-05-04 07:29 | 36.68024 | 101.88018 | 13361 ft | 245 kts | 282° |
| 2026-05-04 07:29 | 36.68378 | 101.85950 | 13040 ft | 244 kts | 282° |
| 2026-05-04 07:30 | 36.68731 | 101.83886 | 12747 ft | 243 kts | 282° |
| 2026-05-04 07:30 | 36.69083 | 101.81827 | 12438 ft | 242 kts | 282° |
| 2026-05-04 07:30 | 36.69431 | 101.79788 | 12137 ft | 241 kts | 281° |
| 2026-05-04 07:30 | 36.69779 | 101.77746 | 11817 ft | 241 kts | 281° |
| 2026-05-04 07:31 | 36.70123 | 101.75730 | 11722 ft | 235 kts | 281° |
| 2026-05-04 07:31 | 36.70235 | 101.73744 | 11699 ft | 222 kts | 261° |
| 2026-05-04 07:33 | 36.62016 | 101.71304 | 11701 ft | 230 kts | 111° |
| 2026-05-04 07:33 | 36.61509 | 101.73195 | 11698 ft | 230 kts | 108° |
| 2026-05-04 07:33 | 36.61026 | 101.75135 | 11442 ft | 235 kts | 108° |
| 2026-05-04 07:33 | 36.60532 | 101.77065 | 11195 ft | 234 kts | 108° |
| 2026-05-04 07:34 | 36.60009 | 101.79075 | 11633 ft | 251 kts | 110° |
| 2026-05-04 07:34 | 36.59373 | 101.81232 | 11916 ft | 280 kts | 111° |
| 2026-05-04 07:34 | 36.58691 | 101.83598 | 12424 ft | 298 kts | 110° |
| 2026-05-04 07:34 | 36.58024 | 101.85984 | 13696 ft | 291 kts | 109° |
| 2026-05-04 07:35 | 36.57364 | 101.88360 | 14456 ft | 289 kts | 109° |
| 2026-05-04 07:35 | 36.56709 | 101.90723 | 14757 ft | 289 kts | 109° |
| 2026-05-04 07:35 | 36.56050 | 101.93102 | 14793 ft | 288 kts | 109° |
| 2026-05-04 07:35 | 36.55398 | 101.95448 | 14793 ft | 287 kts | 109° |
| 2026-05-04 07:36 | 36.54743 | 101.97806 | 14794 ft | 287 kts | 109° |
| 2026-05-04 07:36 | 36.54086 | 102.00170 | 14788 ft | 287 kts | 109° |
| 2026-05-04 07:38 | 36.54041 | 102.17291 | 14775 ft | 286 kts | 73° |
| 2026-05-04 07:38 | 36.54565 | 102.19708 | 14781 ft | 286 kts | 73° |
| 2026-05-04 07:38 | 36.55082 | 102.22099 | 14785 ft | 286 kts | 73° |
| 2026-05-04 07:38 | 36.55601 | 102.24498 | 14787 ft | 285 kts | 73° |
| 2026-05-04 07:39 | 36.56118 | 102.26888 | 14789 ft | 285 kts | 73° |
| 2026-05-04 07:39 | 36.56635 | 102.29287 | 14790 ft | 285 kts | 73° |
| 2026-05-04 07:39 | 36.57154 | 102.31691 | 14792 ft | 286 kts | 73° |
| 2026-05-04 07:39 | 36.57676 | 102.34119 | 14786 ft | 286 kts | 73° |
| 2026-05-04 07:40 | 36.58198 | 102.36545 | 14784 ft | 288 kts | 73° |
| 2026-05-04 07:40 | 36.58728 | 102.39009 | 14779 ft | 288 kts | 73° |
| 2026-05-04 07:40 | 36.59118 | 102.41425 | 14694 ft | 280 kts | 87° |
| 2026-05-04 07:40 | 36.58888 | 102.43822 | 14567 ft | 276 kts | 108° |
| 2026-05-04 07:41 | 36.58025 | 102.45968 | 14426 ft | 273 kts | 128° |
| 2026-05-04 07:41 | 36.56657 | 102.47606 | 14287 ft | 273 kts | 148° |
| 2026-05-04 07:41 | 36.54933 | 102.48587 | 14162 ft | 269 kts | 168° |
| 2026-05-04 07:41 | 36.53063 | 102.48874 | 14056 ft | 267 kts | 179° |
| 2026-05-04 07:42 | 36.51173 | 102.48964 | 13949 ft | 268 kts | 180° |
| 2026-05-04 07:42 | 36.49288 | 102.49007 | 13845 ft | 267 kts | 184° |
| 2026-05-04 07:42 | 36.47513 | 102.48500 | 13729 ft | 257 kts | 212° |
| 2026-05-04 07:42 | 36.46178 | 102.47079 | 13554 ft | 254 kts | 234° |
| 2026-05-04 07:43 | 36.45209 | 102.45232 | 13179 ft | 256 kts | 242° |
| 2026-05-04 07:43 | 36.44362 | 102.43276 | 12909 ft | 253 kts | 244° |
| 2026-05-04 07:43 | 36.43589 | 102.41370 | 12846 ft | 239 kts | 251° |
| 2026-05-04 07:43 | 36.43383 | 102.39421 | 12840 ft | 220 kts | 276° |
| 2026-05-04 07:44 | 36.43659 | 102.37566 | 12850 ft | 213 kts | 284° |
| 2026-05-04 07:44 | 36.44054 | 102.35778 | 12765 ft | 214 kts | 287° |
| 2026-05-04 07:44 | 36.44513 | 102.34016 | 12475 ft | 211 kts | 288° |
| 2026-05-04 07:44 | 36.44994 | 102.32299 | 12170 ft | 207 kts | 289° |
| 2026-05-04 07:45 | 36.45485 | 102.30611 | 11859 ft | 205 kts | 289° |
| 2026-05-04 07:45 | 36.45969 | 102.28956 | 11555 ft | 202 kts | 289° |
| 2026-05-04 07:45 | 36.46444 | 102.27313 | 11169 ft | 201 kts | 289° |
| 2026-05-04 07:45 | 36.46907 | 102.25689 | 10738 ft | 196 kts | 289° |
| 2026-05-04 07:46 | 36.47352 | 102.24121 | 10273 ft | 190 kts | 289° |
| 2026-05-04 07:46 | 36.47784 | 102.22597 | 9915 ft | 183 kts | 289° |
| 2026-05-04 07:46 | 36.48199 | 102.21129 | 9676 ft | 179 kts | 288° |
| 2026-05-04 07:46 | 36.48614 | 102.19661 | 9438 ft | 180 kts | 288° |
| 2026-05-04 07:47 | 36.49026 | 102.18198 | 9197 ft | 179 kts | 288° |
| 2026-05-04 07:47 | 36.49436 | 102.16740 | 8954 ft | 175 kts | 289° |
| 2026-05-04 07:47 | 36.49833 | 102.15334 | 8726 ft | 170 kts | 289° |
| 2026-05-04 07:49 | 36.52556 | 102.05681 | 7224 ft | 164 kts | 287° |
| 2026-05-04 07:49 | 36.52884 | 102.04477 | 7225 ft | 129 kts | 286° |
| 2026-05-04 07:49 | 36.53144 | 102.03565 | 7227 ft | 94 kts | 290° |
| 2026-05-04 07:50 | 36.53316 | 102.02936 | 7228 ft | 58 kts | 289° |
| 2026-05-04 07:50 | 36.53407 | 102.02604 | 7229 ft | 22 kts | 289° |
| 2026-05-04 07:50 | 36.53453 | 102.02439 | 7230 ft | 20 kts | 289° |
| 2026-05-04 07:50 | 36.53503 | 102.02258 | 7230 ft | 24 kts | 289° |
| 2026-05-04 07:51 | 36.53560 | 102.02053 | 7230 ft | 24 kts | 289° |
| 2026-05-04 07:51 | 36.53496 | 102.01919 | 7230 ft | 19 kts | 199° |
| 2026-05-04 07:51 | 36.53440 | 102.01895 | 7230 ft | 2 kts | 199° |
| 2026-05-04 07:51 | 36.53391 | 102.01877 | 7230 ft | 11 kts | 184° |
| 2026-05-04 07:52 | 36.53326 | 102.01975 | 7229 ft | 20 kts | 108° |
| 2026-05-04 07:52 | 36.53276 | 102.02177 | 7229 ft | 28 kts | 108° |
| 2026-05-04 07:52 | 36.53202 | 102.02442 | 7228 ft | 36 kts | 109° |
| 2026-05-04 07:52 | 36.53119 | 102.02736 | 7228 ft | 32 kts | 110° |
| 2026-05-04 07:53 | 36.53049 | 102.02994 | 7227 ft | 30 kts | 109° |
| 2026-05-04 07:54 | 36.52701 | 102.04247 | 7224 ft | 14 kts | 109° |
| 2026-05-04 07:55 | 36.52669 | 102.04359 | 7224 ft | 12 kts | 109° |
| 2026-05-04 07:55 | 36.52641 | 102.04459 | 7223 ft | 11 kts | 109° |
| 2026-05-04 07:55 | 36.52616 | 102.04551 | 7223 ft | 10 kts | 108° |
| 2026-05-04 07:55 | 36.52593 | 102.04634 | 7223 ft | 9 kts | 108° |
| 2026-05-04 07:56 | 36.52573 | 102.04709 | 7223 ft | 9 kts | 108° |
| 2026-05-04 07:56 | 36.52550 | 102.04794 | 7222 ft | 11 kts | 109° |
| 2026-05-04 07:56 | 36.52521 | 102.04898 | 7222 ft | 13 kts | 109° |
| 2026-05-04 07:56 | 36.52496 | 102.04957 | 7222 ft | 5 kts | 159° |
| 2026-05-04 07:57 | 36.52437 | 102.04936 | 7222 ft | 12 kts | 199° |
| 2026-05-04 07:57 | 36.52340 | 102.04893 | 7221 ft | 15 kts | 200° |
| 2026-05-04 07:57 | 36.52261 | 102.04866 | 7221 ft | 4 kts | 167° |
| 2026-05-04 07:57 | 36.52231 | 102.04883 | 7221 ft | 4 kts | 153° |
| 2026-05-04 07:58 | 36.52205 | 102.04900 | 7220 ft | 3 kts | 152° |
| 2026-05-04 07:58 | 36.52187 | 102.04911 | 7220 ft | 0 kts | 152° |